sensor_id;sensor_type;location;lat;lon;timestamp;pressure;altitude;pressure_sealevel;temperature;humidity
50702;BME280;36670;50.094;8.496;2023-09-12T00:01:59;99925.56;;;24.84;51.69
50702;BME280;36670;50.094;8.496;2023-09-12T00:04:24;99914.88;;;24.77;51.77
50702;BME280;36670;50.094;8.496;2023-09-12T00:06:49;99917.41;;;24.66;52.71
50702;BME280;36670;50.094;8.496;2023-09-12T00:09:15;99916.00;;;24.48;52.57
50702;BME280;36670;50.094;8.496;2023-09-12T00:11:40;99916.06;;;24.23;53.50
50702;BME280;36670;50.094;8.496;2023-09-12T00:14:05;99908.19;;;24.29;53.28
50702;BME280;36670;50.094;8.496;2023-09-12T00:16:33;99907.50;;;24.07;53.35
50702;BME280;36670;50.094;8.496;2023-09-12T00:18:58;99914.06;;;23.99;53.20
50702;BME280;36670;50.094;8.496;2023-09-12T00:21:23;99919.47;;;23.92;54.22
50702;BME280;36670;50.094;8.496;2023-09-12T00:23:48;99912.03;;;23.50;54.86
50702;BME280;36670;50.094;8.496;2023-09-12T00:26:14;99904.19;;;23.80;54.17
50702;BME280;36670;50.094;8.496;2023-09-12T00:28:39;99900.31;;;24.10;53.64
50702;BME280;36670;50.094;8.496;2023-09-12T00:31:05;99893.53;;;24.11;53.68
50702;BME280;36670;50.094;8.496;2023-09-12T00:33:30;99899.03;;;23.95;53.32
50702;BME280;36670;50.094;8.496;2023-09-12T00:35:55;99901.44;;;24.46;52.27
50702;BME280;36670;50.094;8.496;2023-09-12T00:38:21;99894.78;;;24.13;53.16
50702;BME280;36670;50.094;8.496;2023-09-12T00:40:46;99897.84;;;24.20;53.33
50702;BME280;36670;50.094;8.496;2023-09-12T00:43:12;99893.00;;;23.84;53.74
50702;BME280;36670;50.094;8.496;2023-09-12T00:45:37;99890.91;;;23.44;54.76
50702;BME280;36670;50.094;8.496;2023-09-12T00:48:04;99889.44;;;23.25;55.85
50702;BME280;36670;50.094;8.496;2023-09-12T00:50:30;99903.13;;;23.14;55.93
50702;BME280;36670;50.094;8.496;2023-09-12T00:52:56;99896.03;;;23.29;55.84
50702;BME280;36670;50.094;8.496;2023-09-12T00:55:21;99900.63;;;23.59;55.17
50702;BME280;36670;50.094;8.496;2023-09-12T00:57:47;99889.38;;;23.71;54.75
50702;BME280;36670;50.094;8.496;2023-09-12T01:00:14;99894.44;;;23.65;55.17
50702;BME280;36670;50.094;8.496;2023-09-12T01:02:41;99891.03;;;23.84;54.49
50702;BME280;36670;50.094;8.496;2023-09-12T01:05:07;99879.06;;;24.00;53.81
50702;BME280;36670;50.094;8.496;2023-09-12T01:07:33;99880.47;;;23.94;53.58
50702;BME280;36670;50.094;8.496;2023-09-12T01:09:59;99877.03;;;24.25;52.99
50702;BME280;36670;50.094;8.496;2023-09-12T01:12:24;99889.16;;;23.64;54.65
50702;BME280;36670;50.094;8.496;2023-09-12T01:14:50;99878.22;;;23.87;53.55
50702;BME280;36670;50.094;8.496;2023-09-12T01:17:15;99888.00;;;23.77;54.22
50702;BME280;36670;50.094;8.496;2023-09-12T01:19:40;99877.38;;;24.24;53.25
50702;BME280;36670;50.094;8.496;2023-09-12T01:25:11;99874.72;;;24.02;53.21
50702;BME280;36670;50.094;8.496;2023-09-12T01:27:45;99883.28;;;23.81;53.99
50702;BME280;36670;50.094;8.496;2023-09-12T01:30:12;99881.03;;;23.62;54.76
50702;BME280;36670;50.094;8.496;2023-09-12T01:32:38;99880.69;;;23.64;54.88
50702;BME280;36670;50.094;8.496;2023-09-12T01:35:04;99878.22;;;23.50;55.36
50702;BME280;36670;50.094;8.496;2023-09-12T01:37:33;99866.38;;;23.81;54.13
50702;BME280;36670;50.094;8.496;2023-09-12T01:39:58;99875.06;;;23.76;54.37
50702;BME280;36670;50.094;8.496;2023-09-12T01:42:25;99879.53;;;23.90;54.29
50702;BME280;36670;50.094;8.496;2023-09-12T01:44:55;99880.25;;;23.99;53.97
50702;BME280;36670;50.094;8.496;2023-09-12T01:47:21;99867.09;;;23.91;53.88
50702;BME280;36670;50.094;8.496;2023-09-12T01:49:52;99866.34;;;23.44;54.90
50702;BME280;36670;50.094;8.496;2023-09-12T01:52:19;99864.25;;;23.78;54.57
50702;BME280;36670;50.094;8.496;2023-09-12T01:54:45;99868.69;;;23.30;55.82
50702;BME280;36670;50.094;8.496;2023-09-12T01:57:13;99868.81;;;23.33;55.21
50702;BME280;36670;50.094;8.496;2023-09-12T01:59:39;99876.22;;;23.75;54.76
50702;BME280;36670;50.094;8.496;2023-09-12T02:02:04;99875.31;;;23.96;54.55
50702;BME280;36670;50.094;8.496;2023-09-12T02:04:29;99878.00;;;24.05;54.37
50702;BME280;36670;50.094;8.496;2023-09-12T02:06:55;99885.41;;;23.84;54.13
50702;BME280;36670;50.094;8.496;2023-09-12T02:09:20;99887.72;;;23.70;54.27
50702;BME280;36670;50.094;8.496;2023-09-12T02:11:47;99880.22;;;23.62;54.77
50702;BME280;36670;50.094;8.496;2023-09-12T02:14:12;99888.75;;;23.41;54.94
50702;BME280;36670;50.094;8.496;2023-09-12T02:16:37;99883.97;;;23.41;54.99
50702;BME280;36670;50.094;8.496;2023-09-12T02:19:04;99887.28;;;23.68;55.23
50702;BME280;36670;50.094;8.496;2023-09-12T02:21:29;99889.97;;;24.14;53.63
50702;BME280;36670;50.094;8.496;2023-09-12T02:23:55;99878.19;;;24.36;53.77
50702;BME280;36670;50.094;8.496;2023-09-12T02:26:20;99882.28;;;24.39;53.08
50702;BME280;36670;50.094;8.496;2023-09-12T02:28:45;99884.66;;;24.37;53.80
50702;BME280;36670;50.094;8.496;2023-09-12T02:31:11;99881.41;;;23.98;53.79
50702;BME280;36670;50.094;8.496;2023-09-12T02:33:37;99889.72;;;23.69;54.61
50702;BME280;36670;50.094;8.496;2023-09-12T02:36:03;99877.88;;;23.51;55.21
50702;BME280;36670;50.094;8.496;2023-09-12T02:38:29;99878.34;;;23.54;54.71
50702;BME280;36670;50.094;8.496;2023-09-12T02:40:54;99878.69;;;23.64;54.84
50702;BME280;36670;50.094;8.496;2023-09-12T02:43:21;99871.16;;;23.56;54.67
50702;BME280;36670;50.094;8.496;2023-09-12T02:45:46;99863.06;;;23.79;54.55
50702;BME280;36670;50.094;8.496;2023-09-12T02:48:11;99862.00;;;23.84;54.32
50702;BME280;36670;50.094;8.496;2023-09-12T02:50:37;99863.19;;;23.83;54.37
50702;BME280;36670;50.094;8.496;2023-09-12T02:53:03;99865.88;;;23.55;54.64
50702;BME280;36670;50.094;8.496;2023-09-12T02:55:28;99872.94;;;23.61;54.46
50702;BME280;36670;50.094;8.496;2023-09-12T02:57:53;99868.94;;;23.86;54.77
50702;BME280;36670;50.094;8.496;2023-09-12T03:00:19;99877.91;;;24.01;53.42
50702;BME280;36670;50.094;8.496;2023-09-12T03:02:45;99877.88;;;23.76;54.51
50702;BME280;36670;50.094;8.496;2023-09-12T03:05:10;99877.28;;;23.46;54.96
50702;BME280;36670;50.094;8.496;2023-09-12T03:07:36;99875.97;;;23.43;55.02
50702;BME280;36670;50.094;8.496;2023-09-12T03:10:01;99867.75;;;23.26;55.74
50702;BME280;36670;50.094;8.496;2023-09-12T03:12:27;99870.19;;;23.15;56.13
50702;BME280;36670;50.094;8.496;2023-09-12T03:14:52;99869.97;;;23.45;55.30
50702;BME280;36670;50.094;8.496;2023-09-12T03:17:17;99872.91;;;23.36;55.79
50702;BME280;36670;50.094;8.496;2023-09-12T03:19:42;99874.66;;;23.16;56.16
50702;BME280;36670;50.094;8.496;2023-09-12T03:22:08;99863.31;;;23.49;55.82
50702;BME280;36670;50.094;8.496;2023-09-12T03:24:33;99866.25;;;23.53;55.49
50702;BME280;36670;50.094;8.496;2023-09-12T03:26:58;99863.31;;;23.49;55.52
50702;BME280;36670;50.094;8.496;2023-09-12T03:29:24;99862.22;;;23.29;56.08
50702;BME280;36670;50.094;8.496;2023-09-12T03:31:49;99853.66;;;23.26;56.03
50702;BME280;36670;50.094;8.496;2023-09-12T03:34:14;99844.97;;;23.43;55.92
50702;BME280;36670;50.094;8.496;2023-09-12T03:36:40;99851.53;;;23.23;56.06
50702;BME280;36670;50.094;8.496;2023-09-12T03:39:07;99837.44;;;23.23;56.00
50702;BME280;36670;50.094;8.496;2023-09-12T03:41:34;99835.72;;;22.97;56.74
50702;BME280;36670;50.094;8.496;2023-09-12T03:44:00;99845.56;;;22.91;56.70
50702;BME280;36670;50.094;8.496;2023-09-12T03:46:25;99847.38;;;23.08;56.68
50702;BME280;36670;50.094;8.496;2023-09-12T03:48:50;99851.72;;;23.05;57.00
50702;BME280;36670;50.094;8.496;2023-09-12T03:51:16;99850.16;;;23.41;55.75
50702;BME280;36670;50.094;8.496;2023-09-12T03:53:41;99854.72;;;23.33;56.25
50702;BME280;36670;50.094;8.496;2023-09-12T03:56:07;99847.22;;;23.38;56.17
50702;BME280;36670;50.094;8.496;2023-09-12T03:58:33;99849.66;;;23.27;56.14
50702;BME280;36670;50.094;8.496;2023-09-12T04:00:59;99850.41;;;23.48;55.97
50702;BME280;36670;50.094;8.496;2023-09-12T04:03:24;99840.75;;;23.62;55.79
50702;BME280;36670;50.094;8.496;2023-09-12T04:05:53;99844.06;;;23.64;55.67
50702;BME280;36670;50.094;8.496;2023-09-12T04:08:18;99849.34;;;23.65;55.96
50702;BME280;36670;50.094;8.496;2023-09-12T04:10:44;99843.00;;;23.81;54.77
50702;BME280;36670;50.094;8.496;2023-09-12T04:15:34;99842.75;;;23.74;55.34
50702;BME280;36670;50.094;8.496;2023-09-12T04:17:59;99847.59;;;23.73;55.19
50702;BME280;36670;50.094;8.496;2023-09-12T04:20:25;99857.66;;;23.62;56.07
50702;BME280;36670;50.094;8.496;2023-09-12T04:22:50;99855.44;;;23.80;55.15
50702;BME280;36670;50.094;8.496;2023-09-12T04:25:15;99864.59;;;23.52;55.36
50702;BME280;36670;50.094;8.496;2023-09-12T04:27:41;99863.91;;;23.67;55.44
50702;BME280;36670;50.094;8.496;2023-09-12T04:30:07;99857.09;;;23.81;55.15
50702;BME280;36670;50.094;8.496;2023-09-12T04:32:33;99854.72;;;24.08;54.62
50702;BME280;36670;50.094;8.496;2023-09-12T04:34:58;99863.28;;;23.86;55.45
50702;BME280;36670;50.094;8.496;2023-09-12T04:37:23;99864.47;;;23.48;56.07
50702;BME280;36670;50.094;8.496;2023-09-12T04:39:49;99858.38;;;23.71;55.35
50702;BME280;36670;50.094;8.496;2023-09-12T04:42:14;99862.84;;;23.84;55.21
50702;BME280;36670;50.094;8.496;2023-09-12T04:44:40;99865.31;;;23.74;55.48
50702;BME280;36670;50.094;8.496;2023-09-12T04:47:06;99865.66;;;23.84;55.09
50702;BME280;36670;50.094;8.496;2023-09-12T04:49:31;99867.19;;;24.07;55.19
50702;BME280;36670;50.094;8.496;2023-09-12T04:51:57;99873.78;;;24.11;54.74
50702;BME280;36670;50.094;8.496;2023-09-12T04:54:22;99873.06;;;24.01;54.85
50702;BME280;36670;50.094;8.496;2023-09-12T04:56:47;99878.81;;;23.80;55.19
50702;BME280;36670;50.094;8.496;2023-09-12T04:59:13;99884.78;;;23.54;56.71
50702;BME280;36670;50.094;8.496;2023-09-12T05:01:38;99877.53;;;23.78;56.72
50702;BME280;36670;50.094;8.496;2023-09-12T05:04:03;99874.13;;;23.72;56.95
50702;BME280;36670;50.094;8.496;2023-09-12T05:06:29;99869.06;;;23.65;56.90
50702;BME280;36670;50.094;8.496;2023-09-12T05:08:54;99857.44;;;23.30;57.87
50702;BME280;36670;50.094;8.496;2023-09-12T05:11:21;99865.53;;;23.44;57.68
50702;BME280;36670;50.094;8.496;2023-09-12T05:13:46;99855.03;;;23.20;58.29
50702;BME280;36670;50.094;8.496;2023-09-12T05:16:12;99859.28;;;23.13;58.88
50702;BME280;36670;50.094;8.496;2023-09-12T05:18:37;99854.00;;;23.37;58.24
50702;BME280;36670;50.094;8.496;2023-09-12T05:21:02;99861.63;;;23.24;58.74
50702;BME280;36670;50.094;8.496;2023-09-12T05:23:28;99865.38;;;23.15;59.39
50702;BME280;36670;50.094;8.496;2023-09-12T05:25:53;99864.00;;;23.34;59.14
50702;BME280;36670;50.094;8.496;2023-09-12T05:28:18;99869.28;;;23.48;58.73
50702;BME280;36670;50.094;8.496;2023-09-12T05:30:44;99870.25;;;23.06;59.04
50702;BME280;36670;50.094;8.496;2023-09-12T05:33:09;99874.22;;;23.51;58.00
50702;BME280;36670;50.094;8.496;2023-09-12T05:35:34;99863.19;;;23.83;57.18
50702;BME280;36670;50.094;8.496;2023-09-12T05:38:00;99866.84;;;23.83;57.46
50702;BME280;36670;50.094;8.496;2023-09-12T05:40:25;99863.88;;;24.17;56.84
50702;BME280;36670;50.094;8.496;2023-09-12T05:42:50;99857.81;;;23.90;56.60
50702;BME280;36670;50.094;8.496;2023-09-12T05:45:16;99860.28;;;23.92;56.90
50702;BME280;36670;50.094;8.496;2023-09-12T05:47:41;99864.25;;;23.78;57.46
50702;BME280;36670;50.094;8.496;2023-09-12T05:50:07;99874.34;;;23.55;57.70
50702;BME280;36670;50.094;8.496;2023-09-12T05:52:33;99878.31;;;23.66;57.88
50702;BME280;36670;50.094;8.496;2023-09-12T05:54:58;99872.09;;;24.22;56.79
50702;BME280;36670;50.094;8.496;2023-09-12T05:57:23;99864.09;;;24.24;55.95
50702;BME280;36670;50.094;8.496;2023-09-12T05:59:49;99866.03;;;23.83;57.23
50702;BME280;36670;50.094;8.496;2023-09-12T06:02:15;99862.38;;;24.07;55.96
50702;BME280;36670;50.094;8.496;2023-09-12T06:04:40;99873.19;;;23.80;56.87
50702;BME280;36670;50.094;8.496;2023-09-12T06:07:05;99866.72;;;24.05;56.29
50702;BME280;36670;50.094;8.496;2023-09-12T06:09:31;99873.41;;;24.12;56.23
50702;BME280;36670;50.094;8.496;2023-09-12T06:11:56;99868.69;;;24.29;56.25
50702;BME280;36670;50.094;8.496;2023-09-12T06:14:21;99867.66;;;23.72;57.31
50702;BME280;36670;50.094;8.496;2023-09-12T06:16:47;99868.09;;;23.49;58.47
50702;BME280;36670;50.094;8.496;2023-09-12T06:19:12;99881.84;;;23.50;58.23
50702;BME280;36670;50.094;8.496;2023-09-12T06:21:39;99880.56;;;23.73;57.67
50702;BME280;36670;50.094;8.496;2023-09-12T06:24:12;99879.78;;;24.09;56.76
50702;BME280;36670;50.094;8.496;2023-09-12T06:26:38;99882.31;;;24.27;56.46
50702;BME280;36670;50.094;8.496;2023-09-12T06:29:04;99876.88;;;24.34;56.75
50702;BME280;36670;50.094;8.496;2023-09-12T06:31:29;99877.06;;;24.13;56.59
50702;BME280;36670;50.094;8.496;2023-09-12T06:33:55;99877.53;;;23.78;57.70
50702;BME280;36670;50.094;8.496;2023-09-12T06:36:20;99878.47;;;23.82;57.96
50702;BME280;36670;50.094;8.496;2023-09-12T06:38:45;99880.00;;;24.16;56.84
50702;BME280;36670;50.094;8.496;2023-09-12T06:41:10;99875.41;;;24.12;56.73
50702;BME280;36670;50.094;8.496;2023-09-12T06:43:36;99883.38;;;24.22;56.82
50702;BME280;36670;50.094;8.496;2023-09-12T06:46:01;99882.41;;;24.83;57.17
50702;BME280;36670;50.094;8.496;2023-09-12T06:48:26;99875.75;;;26.16;54.73
50702;BME280;36670;50.094;8.496;2023-09-12T06:50:53;99874.69;;;26.99;52.93
50702;BME280;36670;50.094;8.496;2023-09-12T06:53:18;99876.44;;;26.68;50.99
50702;BME280;36670;50.094;8.496;2023-09-12T06:55:44;99878.00;;;26.46;52.57
50702;BME280;36670;50.094;8.496;2023-09-12T06:58:09;99882.56;;;26.15;53.29
50702;BME280;36670;50.094;8.496;2023-09-12T07:00:34;99887.50;;;26.18;52.28
50702;BME280;36670;50.094;8.496;2023-09-12T07:03:00;99888.06;;;26.08;52.02
50702;BME280;36670;50.094;8.496;2023-09-12T07:05:25;99892.19;;;26.10;52.33
50702;BME280;36670;50.094;8.496;2023-09-12T07:07:52;99894.34;;;26.17;53.01
50702;BME280;36670;50.094;8.496;2023-09-12T07:10:17;99890.50;;;26.80;51.61
50702;BME280;36670;50.094;8.496;2023-09-12T07:12:42;99903.59;;;27.08;51.37
50702;BME280;36670;50.094;8.496;2023-09-12T07:15:08;99896.81;;;27.13;51.14
50702;BME280;36670;50.094;8.496;2023-09-12T07:17:34;99896.97;;;26.61;51.80
50702;BME280;36670;50.094;8.496;2023-09-12T07:19:59;99891.69;;;26.79;52.08
50702;BME280;36670;50.094;8.496;2023-09-12T07:22:25;99886.22;;;26.51;51.78
50702;BME280;36670;50.094;8.496;2023-09-12T07:24:51;99884.09;;;26.28;52.90
50702;BME280;36670;50.094;8.496;2023-09-12T07:27:16;99879.41;;;26.55;51.63
50702;BME280;36670;50.094;8.496;2023-09-12T07:29:42;99879.13;;;26.41;52.42
50702;BME280;36670;50.094;8.496;2023-09-12T07:32:07;99886.81;;;26.40;51.77
50702;BME280;36670;50.094;8.496;2023-09-12T07:34:32;99887.84;;;26.52;51.47
50702;BME280;36670;50.094;8.496;2023-09-12T07:36:58;99882.84;;;26.45;51.32
50702;BME280;36670;50.094;8.496;2023-09-12T07:39:23;99882.63;;;26.54;51.69
50702;BME280;36670;50.094;8.496;2023-09-12T07:41:48;99875.03;;;26.58;52.28
50702;BME280;36670;50.094;8.496;2023-09-12T07:44:14;99890.44;;;26.77;50.25
50702;BME280;36670;50.094;8.496;2023-09-12T07:46:41;99891.75;;;27.02;50.98
50702;BME280;36670;50.094;8.496;2023-09-12T07:49:06;99889.44;;;27.51;50.90
50702;BME280;36670;50.094;8.496;2023-09-12T07:51:34;99887.09;;;27.56;49.25
50702;BME280;36670;50.094;8.496;2023-09-12T07:53:59;99890.50;;;27.66;50.00
50702;BME280;36670;50.094;8.496;2023-09-12T07:56:25;99883.66;;;27.93;49.12
50702;BME280;36670;50.094;8.496;2023-09-12T07:58:50;99893.66;;;27.18;50.41
50702;BME280;36670;50.094;8.496;2023-09-12T08:01:15;99889.38;;;27.28;50.13
50702;BME280;36670;50.094;8.496;2023-09-12T08:03:42;99888.53;;;27.47;49.49
50702;BME280;36670;50.094;8.496;2023-09-12T08:06:08;99888.94;;;27.25;50.58
50702;BME280;36670;50.094;8.496;2023-09-12T08:08:33;99899.66;;;27.13;50.16
50702;BME280;36670;50.094;8.496;2023-09-12T08:10:59;99895.69;;;27.17;49.91
50702;BME280;36670;50.094;8.496;2023-09-12T08:13:29;99894.41;;;27.57;49.60
50702;BME280;36670;50.094;8.496;2023-09-12T08:15:55;99905.63;;;27.31;49.19
50702;BME280;36670;50.094;8.496;2023-09-12T08:18:20;99904.09;;;27.56;48.79
50702;BME280;36670;50.094;8.496;2023-09-12T08:20:46;99903.03;;;27.88;47.76
50702;BME280;36670;50.094;8.496;2023-09-12T08:23:11;99895.84;;;28.21;47.71
50702;BME280;36670;50.094;8.496;2023-09-12T08:25:36;99898.50;;;28.10;47.88
50702;BME280;36670;50.094;8.496;2023-09-12T08:28:02;99900.06;;;28.04;46.57
50702;BME280;36670;50.094;8.496;2023-09-12T08:30:27;99895.94;;;28.01;47.30
50702;BME280;36670;50.094;8.496;2023-09-12T08:32:56;99894.34;;;28.31;46.11
50702;BME280;36670;50.094;8.496;2023-09-12T08:35:21;99892.47;;;29.03;46.43
50702;BME280;36670;50.094;8.496;2023-09-12T08:37:46;99894.34;;;29.25;45.07
50702;BME280;36670;50.094;8.496;2023-09-12T08:40:12;99906.56;;;29.71;44.12
50702;BME280;36670;50.094;8.496;2023-09-12T08:42:41;99894.94;;;29.42;43.22
50702;BME280;36670;50.094;8.496;2023-09-12T08:45:12;99901.72;;;28.96;44.33
50702;BME280;36670;50.094;8.496;2023-09-12T08:47:40;99901.31;;;28.98;44.16
50702;BME280;36670;50.094;8.496;2023-09-12T08:50:12;99896.63;;;29.47;44.69
50702;BME280;36670;50.094;8.496;2023-09-12T08:52:40;99893.44;;;29.55;43.66
50702;BME280;36670;50.094;8.496;2023-09-12T08:55:06;99895.78;;;29.91;43.89
50702;BME280;36670;50.094;8.496;2023-09-12T08:57:33;99896.38;;;30.18;42.74
50702;BME280;36670;50.094;8.496;2023-09-12T09:00:01;99904.84;;;30.67;42.48
50702;BME280;36670;50.094;8.496;2023-09-12T09:02:34;99890.59;;;30.70;41.70
50702;BME280;36670;50.094;8.496;2023-09-12T09:05:01;99896.66;;;30.61;41.98
50702;BME280;36670;50.094;8.496;2023-09-12T09:07:32;99891.47;;;30.92;40.99
50702;BME280;36670;50.094;8.496;2023-09-12T09:09:57;99894.72;;;30.84;41.35
50702;BME280;36670;50.094;8.496;2023-09-12T09:12:22;99890.22;;;30.72;41.84
50702;BME280;36670;50.094;8.496;2023-09-12T09:14:48;99893.13;;;30.93;41.95
50702;BME280;36670;50.094;8.496;2023-09-12T09:17:14;99889.13;;;31.05;41.89
50702;BME280;36670;50.094;8.496;2023-09-12T09:19:42;99885.81;;;30.96;41.59
50702;BME280;36670;50.094;8.496;2023-09-12T09:22:07;99893.63;;;31.10;41.53
50702;BME280;36670;50.094;8.496;2023-09-12T09:24:33;99882.09;;;30.85;40.27
50702;BME280;36670;50.094;8.496;2023-09-12T09:26:58;99890.69;;;30.99;41.03
50702;BME280;36670;50.094;8.496;2023-09-12T09:29:26;99889.16;;;31.12;41.04
50702;BME280;36670;50.094;8.496;2023-09-12T09:31:53;99898.63;;;31.78;40.78
50702;BME280;36670;50.094;8.496;2023-09-12T09:34:20;99895.72;;;31.56;40.19
50702;BME280;36670;50.094;8.496;2023-09-12T09:36:54;99888.38;;;31.55;39.83
50702;BME280;36670;50.094;8.496;2023-09-12T09:39:23;99890.03;;;31.63;40.42
50702;BME280;36670;50.094;8.496;2023-09-12T09:41:50;99894.34;;;30.92;40.85
50702;BME280;36670;50.094;8.496;2023-09-12T09:44:16;99888.38;;;31.55;39.02
50702;BME280;36670;50.094;8.496;2023-09-12T09:46:45;99882.63;;;31.23;40.62
50702;BME280;36670;50.094;8.496;2023-09-12T09:49:14;99896.16;;;31.65;40.73
50702;BME280;36670;50.094;8.496;2023-09-12T09:51:41;99892.50;;;31.72;40.12
50702;BME280;36670;50.094;8.496;2023-09-12T09:54:08;99890.03;;;32.10;39.80
50702;BME280;36670;50.094;8.496;2023-09-12T09:56:45;99891.69;;;32.22;39.83
50702;BME280;36670;50.094;8.496;2023-09-12T09:59:14;99879.44;;;32.07;39.76
50702;BME280;36670;50.094;8.496;2023-09-12T10:01:40;99873.56;;;32.68;38.87
50702;BME280;36670;50.094;8.496;2023-09-12T10:04:07;99875.22;;;31.00;39.24
50702;BME280;36670;50.094;8.496;2023-09-12T10:06:35;99868.78;;;31.21;40.06
50702;BME280;36670;50.094;8.496;2023-09-12T10:09:05;99870.00;;;31.17;40.03
50702;BME280;36670;50.094;8.496;2023-09-12T10:11:32;99865.59;;;31.66;39.75
50702;BME280;36670;50.094;8.496;2023-09-12T10:14:03;99869.66;;;31.69;39.24
50702;BME280;36670;50.094;8.496;2023-09-12T10:16:33;99864.38;;;31.71;39.66
50702;BME280;36670;50.094;8.496;2023-09-12T10:19:15;99855.28;;;32.41;38.87
50702;BME280;36670;50.094;8.496;2023-09-12T10:21:50;99853.28;;;32.38;37.75
50702;BME280;36670;50.094;8.496;2023-09-12T10:24:18;99859.78;;;32.42;38.48
50702;BME280;36670;50.094;8.496;2023-09-12T10:26:46;99850.22;;;32.84;38.51
50702;BME280;36670;50.094;8.496;2023-09-12T10:29:14;99844.25;;;33.28;38.74
50702;BME280;36670;50.094;8.496;2023-09-12T10:31:42;99851.03;;;33.52;37.76
50702;BME280;36670;50.094;8.496;2023-09-12T10:34:10;99842.81;;;33.54;37.52
50702;BME280;36670;50.094;8.496;2023-09-12T10:36:39;99845.59;;;33.09;37.36
50702;BME280;36670;50.094;8.496;2023-09-12T10:39:05;99838.19;;;33.18;36.51
50702;BME280;36670;50.094;8.496;2023-09-12T10:41:32;99837.06;;;33.61;35.98
50702;BME280;36670;50.094;8.496;2023-09-12T10:43:58;99844.88;;;32.94;36.26
50702;BME280;36670;50.094;8.496;2023-09-12T10:46:24;99839.16;;;32.97;37.34
50702;BME280;36670;50.094;8.496;2023-09-12T10:48:50;99834.44;;;33.32;37.19
50702;BME280;36670;50.094;8.496;2023-09-12T10:51:17;99835.03;;;32.98;35.96
50702;BME280;36670;50.094;8.496;2023-09-12T10:53:47;99837.47;;;33.04;36.73
50702;BME280;36670;50.094;8.496;2023-09-12T10:56:18;99830.59;;;32.90;37.68
50702;BME280;36670;50.094;8.496;2023-09-12T11:01:42;99835.38;;;33.64;36.97
50702;BME280;36670;50.094;8.496;2023-09-12T11:06:48;99838.50;;;33.84;36.27
50702;BME280;36670;50.094;8.496;2023-09-12T11:11:40;99842.16;;;34.26;35.64
50702;BME280;36670;50.094;8.496;2023-09-12T11:14:07;99832.50;;;34.13;35.56
50702;BME280;36670;50.094;8.496;2023-09-12T11:16:33;99843.19;;;34.09;34.71
50702;BME280;36670;50.094;8.496;2023-09-12T11:19:14;99838.63;;;34.11;35.34
50702;BME280;36670;50.094;8.496;2023-09-12T11:21:41;99834.53;;;34.50;35.28
50702;BME280;36670;50.094;8.496;2023-09-12T11:24:07;99830.94;;;34.05;35.26
50702;BME280;36670;50.094;8.496;2023-09-12T11:26:33;99820.47;;;34.29;34.79
50702;BME280;36670;50.094;8.496;2023-09-12T11:29:10;99823.69;;;33.93;34.97
50702;BME280;36670;50.094;8.496;2023-09-12T11:31:37;99824.03;;;33.98;35.11
50702;BME280;36670;50.094;8.496;2023-09-12T11:34:09;99824.00;;;33.57;35.89
50702;BME280;36670;50.094;8.496;2023-09-12T11:36:41;99819.34;;;34.15;36.00
50702;BME280;36670;50.094;8.496;2023-09-12T11:39:25;99825.38;;;34.28;35.83
50702;BME280;36670;50.094;8.496;2023-09-12T11:41:51;99829.06;;;34.25;35.86
50702;BME280;36670;50.094;8.496;2023-09-12T11:44:18;99830.75;;;34.57;35.47
50702;BME280;36670;50.094;8.496;2023-09-12T11:46:47;99835.03;;;34.42;34.88
50702;BME280;36670;50.094;8.496;2023-09-12T11:49:13;99831.91;;;34.32;34.33
50702;BME280;36670;50.094;8.496;2023-09-12T11:51:52;99832.19;;;34.42;34.96
50702;BME280;36670;50.094;8.496;2023-09-12T11:54:24;99837.81;;;34.49;35.67
50702;BME280;36670;50.094;8.496;2023-09-12T11:56:50;99835.44;;;35.06;33.71
50702;BME280;36670;50.094;8.496;2023-09-12T11:59:22;99827.03;;;35.18;34.00
50702;BME280;36670;50.094;8.496;2023-09-12T12:01:48;99826.31;;;35.42;33.82
50702;BME280;36670;50.094;8.496;2023-09-12T12:04:13;99825.63;;;35.03;33.66
50702;BME280;36670;50.094;8.496;2023-09-12T12:06:39;99820.13;;;34.89;33.03
50702;BME280;36670;50.094;8.496;2023-09-12T12:09:04;99817.63;;;35.18;33.29
50702;BME280;36670;50.094;8.496;2023-09-12T12:11:30;99819.63;;;35.21;33.41
50702;BME280;36670;50.094;8.496;2023-09-12T12:13:56;99811.84;;;34.94;33.49
50702;BME280;36670;50.094;8.496;2023-09-12T12:16:22;99813.66;;;34.81;33.77
50702;BME280;36670;50.094;8.496;2023-09-12T12:18:47;99809.13;;;34.83;32.98
50702;BME280;36670;50.094;8.496;2023-09-12T12:21:12;99817.22;;;34.92;33.61
50702;BME280;36670;50.094;8.496;2023-09-12T12:23:38;99812.44;;;35.36;34.00
50702;BME280;36670;50.094;8.496;2023-09-12T12:26:07;99813.75;;;35.32;33.23
50702;BME280;36670;50.094;8.496;2023-09-12T12:28:33;99814.28;;;34.65;33.46
50702;BME280;36670;50.094;8.496;2023-09-12T12:30:59;99804.00;;;34.98;33.92
50702;BME280;36670;50.094;8.496;2023-09-12T12:33:25;99808.75;;;35.36;34.87
50702;BME280;36670;50.094;8.496;2023-09-12T12:35:59;99805.84;;;35.87;34.00
50702;BME280;36670;50.094;8.496;2023-09-12T12:38:24;99798.13;;;34.78;33.48
50702;BME280;36670;50.094;8.496;2023-09-12T12:40:50;99801.25;;;34.91;33.17
50702;BME280;36670;50.094;8.496;2023-09-12T12:43:16;99793.28;;;35.30;33.90
50702;BME280;36670;50.094;8.496;2023-09-12T12:45:52;99796.47;;;35.35;33.12
50702;BME280;36670;50.094;8.496;2023-09-12T12:48:32;99799.38;;;35.79;32.97
50702;BME280;36670;50.094;8.496;2023-09-12T12:50:58;99782.19;;;34.74;33.92
50702;BME280;36670;50.094;8.496;2023-09-12T12:54:03;99786.75;;;34.71;34.04
50702;BME280;36670;50.094;8.496;2023-09-12T12:56:27;99788.00;;;34.70;33.40
50702;BME280;36670;50.094;8.496;2023-09-12T12:58:57;99786.59;;;35.36;33.97
50702;BME280;36670;50.094;8.496;2023-09-12T13:01:23;99785.63;;;35.70;33.13
50702;BME280;36670;50.094;8.496;2023-09-12T13:03:48;99779.56;;;35.65;32.66
50702;BME280;36670;50.094;8.496;2023-09-12T13:06:15;99777.53;;;35.62;32.51
50702;BME280;36670;50.094;8.496;2023-09-12T13:08:43;99773.25;;;34.99;34.20
50702;BME280;36670;50.094;8.496;2023-09-12T13:11:09;99767.47;;;35.02;34.06